(°C)
11°
11°
11°
10°
(°C)
ΝΔ
ΝΝΔ
ΝΝΔ
Ν
Ν
ΝΝΔ
ΝΝΔ
(χλμ / ω)
9-14
8-12
7-12
7-10
6-10
6-8
5-8
(χιλιοστά)
0
0
0
0
0
0
0
(%)
1
2
2
2
2
2
9

Ανύψωση ήλιου

/ 22.6°
sun-icon
UV 1
06:06
18:25
Φθίνων αμφίκυρτος (φάση σελήνης) (198°)
19:11
07:20

METAR για 51.82°Β 39.23°Α (UUOO)

Χρόνος Συνθήκες Θερμοκρασία/
Σημείο δρόσου
Άνεμος Ορατότητα Καιρός Νέφη Πίεση Αλλαγή Ανεπεξέργαστο
VFR 11°C / 4°C 170º variable 130º to 250º 4kt >10km - Broken Clouds 3500ft 1011 No Significant change. Runway 30: Clear and dry, 1-10% contamination with <1mm, friction coefficient 0.70. UUOO 221230Z 17002MPS 130V250 9999 BKN035 11/04 Q1011 R30/010070 NOSIG RMK QFE745
VFR 11°C / 5°C 210º variable 180º to 250º 4kt >10km - Broken Clouds 3800ft 1011 No Significant change. Runway 12: Clear and dry, 1-10% contamination with <1mm, friction coefficient 0.70. UUOO 221200Z 21002MPS 180V250 9999 BKN038 11/05 Q1011 R12/010070 NOSIG RMK QFE745
VFR 11°C / 5°C 210º 4kt >10km - Broken Clouds 3200ft 1011 No Significant change. Runway 12: Wet or puddles, 51-100% contamination with 1mm, friction coefficient 0.55. UUOO 221130Z 21002MPS 9999 BKN032 11/05 Q1011 R12/290155 NOSIG RMK QFE745
MVFR 11°C / 5°C 210º variable 160º to 250º 4kt >10km - Broken Clouds 2200ft 1011 No Significant change. Runway 12: Wet or puddles, 51-100% contamination with 1mm, friction coefficient 0.55. UUOO 221100Z 21002MPS 160V250 9999 BKN022 11/05 Q1011 R12/290155 NOSIG RMK QFE745
MVFR 10°C / 6°C 230º variable 190º to 260º 4kt >10km - Broken Clouds 2800ft 1011 No Significant change. Runway 12: Wet or puddles, 51-100% contamination with 1mm, friction coefficient 0.55. UUOO 221030Z 23002MPS 190V260 9999 BKN028 10/06 Q1011 R12/290155 NOSIG RMK QFE744
MVFR 10°C / 5°C 250º 6kt >10km - Broken Clouds 2400ft 1011 No Significant change. Runway 12: Wet or puddles, 51-100% contamination with 1mm, friction coefficient 0.55. UUOO 221000Z 25003MPS 9999 BKN024 10/05 Q1011 R12/290155 NOSIG RMK QFE744
MVFR 10°C / 6°C 250º 6kt >10km - Broken Clouds 2800ft 1011 No Significant change. Runway 12: Wet or puddles, 51-100% contamination with 1mm, friction coefficient 0.55. UUOO 220930Z 25003MPS 9999 BKN028 10/06 Q1011 R12/290155 NOSIG RMK QFE744
MVFR 10°C / 6°C 250º 4kt >10km - Broken Clouds 2100ft 1011 No Significant change. Runway 12: Wet or puddles, 51-100% contamination with 1mm, friction coefficient 0.55. UUOO 220900Z 25002MPS 9999 BKN021 10/06 Q1011 R12/290155 NOSIG RMK QFE744
MVFR 10°C / 6°C 250º 6kt >10km - Broken Clouds 3000ft 1011 No Significant change. Runway 12: Wet or puddles, 51-100% contamination with 1mm, friction coefficient 0.55. UUOO 220830Z 25003MPS 9999 BKN030 10/06 Q1011 R12/290155 NOSIG RMK QFE744
VFR 10°C / 7°C variable 2kt >10km - Clouds and Visibility OK 1011 No Significant change. Runway 12: Wet or puddles, 51-100% contamination with 1mm, friction coefficient 0.55. UUOO 220800Z VRB01MPS CAVOK 10/07 Q1011 R12/290155 NOSIG RMK QFE744
IFR 9°C / 7°C 270º variable 210º to 300º 4kt >10km Light Rain 1.00mm precipitation Vertical Visibility of 0ft. 1011 Temporary: Broken Clouds 400ft. RMK QFE744 . Runway 12: Wet or puddles, 51-100% contamination with 1mm, friction coefficient 0.55. UUOO 220730Z 27002MPS 210V300 9999 -RA BKN007 09/07 Q1011 R12/290155 TEMPO BKN004 RMK QFE744
MVFR 9°C / 7°C 260º 6kt >10km Light Rain 1.00mm precipitation Vertical Visibility of 0ft. 1011 Temporary: Broken Clouds 400ft. RMK QFE744 . Runway 12: Wet or puddles, 51-100% contamination with 1mm, friction coefficient 0.55. UUOO 220700Z 26003MPS 9999 -RA BKN010 09/07 Q1011 R12/290155 TEMPO BKN004 RMK QFE744
VFR 8°C / 7°C 270º 4kt >10km Light Rain 1.00mm precipitation Vertical Visibility of 0ft. 1011 Temporary: Broken Clouds 400ft. RMK QFE744 . Runway 12: Wet or puddles, 51-100% contamination with 1mm, friction coefficient 0.55. UUOO 220630Z 27002MPS 9999 -RA NSC 08/07 Q1011 R12/290155 TEMPO BKN004 RMK QFE744
VFR 8°C / 7°C 250º 4kt 9000m Light Rain 1.00mm precipitation Vertical Visibility of 0ft. 1011 Temporary: Broken Clouds 400ft. RMK QFE744 . Runway 12: Damp, 51-100% contamination with <1mm, friction coefficient 0.60. UUOO 220600Z 25002MPS 9000 -RA NSC 08/07 Q1011 R12/190060 TEMPO BKN004 RMK QFE744
VFR 8°C / 7°C 260º 4kt >10km - Broken Clouds 3900ft 1010 Temporary: Broken Clouds 400ft. RMK QFE744 . Runway 30: Damp, 51-100% contamination with <1mm, friction coefficient 0.60. UUOO 220530Z 26002MPS 9999 BKN039 08/07 Q1010 R30/190060 TEMPO BKN004 RMK QFE744
VFR 8°C / 6°C 260º 4kt >10km - Broken Clouds 3300ft 1010 No Significant change. Runway 30: Damp, 51-100% contamination with <1mm, friction coefficient 0.60. UUOO 220500Z 26002MPS 9999 BKN033 08/06 Q1010 R30/190060 NOSIG RMK QFE744
VFR 8°C / 7°C 280º 4kt >10km - Broken Clouds 3300ft 1010 No Significant change. Runway 30: Damp, 51-100% contamination with <1mm, friction coefficient 0.60. UUOO 220430Z 28002MPS 9999 BKN033 08/07 Q1010 R30/190060 NOSIG RMK QFE744
MVFR 7°C / 7°C 280º 6kt >10km - Overcast 2600ft 1010 No Significant change. Runway 30: Damp, 51-100% contamination with <1mm, friction coefficient 0.60. UUOO 220400Z 28003MPS 9999 OVC026 07/07 Q1010 R30/190060 NOSIG RMK QFE744
MVFR 7°C / 6°C 260º 6kt >10km - Overcast 2700ft 1010 No Significant change. Runway 30: Damp, 51-100% contamination with <1mm, friction coefficient 0.60. UUOO 220330Z 26003MPS 9999 OVC027 07/06 Q1010 R30/190060 NOSIG RMK QFE744
MVFR 8°C / 6°C 270º 6kt >10km - Overcast 2200ft 1010 No Significant change. Runway 30: Damp, 51-100% contamination with <1mm, friction coefficient 0.60. UUOO 220300Z 27003MPS 9999 OVC022 08/06 Q1010 R30/190060 NOSIG RMK QFE744
MVFR 8°C / 7°C 280º 4kt >10km - Overcast 2600ft 1010 No Significant change. Runway 30: Wet or puddles, 51-100% contamination with 1mm, friction coefficient 0.55. UUOO 220230Z 28002MPS 9999 OVC026 08/07 Q1010 R30/290155 NOSIG RMK QFE744
MVFR 9°C / 7°C 270º 4kt >10km - Overcast 1600ft 1010 No Significant change. Runway 30: Wet or puddles, 51-100% contamination with 1mm, friction coefficient 0.55. UUOO 212330Z 27002MPS 9999 OVC016 09/07 Q1010 R30/290155 NOSIG RMK QFE744
MVFR 9°C / 8°C 290º 8kt >10km - Overcast 1200ft 1010 No Significant change. Runway 30: Wet or puddles, 51-100% contamination with 1mm, friction coefficient 0.55. UUOO 212300Z 29004MPS 9999 OVC012 09/08 Q1010 R30/290155 NOSIG RMK QFE744
MVFR 9°C / 8°C 280º 6kt >10km - Overcast 1400ft 1010 No Significant change. Runway 30: Wet or puddles, 51-100% contamination with 1mm, friction coefficient 0.55. UUOO 212230Z 28003MPS 9999 OVC014 09/08 Q1010 R30/290155 NOSIG RMK QFE744

VFR

11°C / 4°C

[Περισσότερο]
Άνεμος 170º variable 130º to 250º 4kt
Ορατότητα >10km
Καιρός -
Νέφη Broken Clouds 3500ft
Πίεση 1011
Αλλαγή No Significant change. Runway 30: Clear and dry, 1-10% contamination with <1mm, friction coefficient 0.70.
Ανεπεξέργαστο UUOO 221230Z 17002MPS 130V250 9999 BKN035 11/04 Q1011 R30/010070 NOSIG RMK QFE745

VFR

11°C / 5°C

[Περισσότερο]
Άνεμος 210º variable 180º to 250º 4kt
Ορατότητα >10km
Καιρός -
Νέφη Broken Clouds 3800ft
Πίεση 1011
Αλλαγή No Significant change. Runway 12: Clear and dry, 1-10% contamination with <1mm, friction coefficient 0.70.
Ανεπεξέργαστο UUOO 221200Z 21002MPS 180V250 9999 BKN038 11/05 Q1011 R12/010070 NOSIG RMK QFE745

VFR

11°C / 5°C

[Περισσότερο]
Άνεμος 210º 4kt
Ορατότητα >10km
Καιρός -
Νέφη Broken Clouds 3200ft
Πίεση 1011
Αλλαγή No Significant change. Runway 12: Wet or puddles, 51-100% contamination with 1mm, friction coefficient 0.55.
Ανεπεξέργαστο UUOO 221130Z 21002MPS 9999 BKN032 11/05 Q1011 R12/290155 NOSIG RMK QFE745

MVFR

11°C / 5°C

[Περισσότερο]
Άνεμος 210º variable 160º to 250º 4kt
Ορατότητα >10km
Καιρός -
Νέφη Broken Clouds 2200ft
Πίεση 1011
Αλλαγή No Significant change. Runway 12: Wet or puddles, 51-100% contamination with 1mm, friction coefficient 0.55.
Ανεπεξέργαστο UUOO 221100Z 21002MPS 160V250 9999 BKN022 11/05 Q1011 R12/290155 NOSIG RMK QFE745

MVFR

10°C / 6°C

[Περισσότερο]
Άνεμος 230º variable 190º to 260º 4kt
Ορατότητα >10km
Καιρός -
Νέφη Broken Clouds 2800ft
Πίεση 1011
Αλλαγή No Significant change. Runway 12: Wet or puddles, 51-100% contamination with 1mm, friction coefficient 0.55.
Ανεπεξέργαστο UUOO 221030Z 23002MPS 190V260 9999 BKN028 10/06 Q1011 R12/290155 NOSIG RMK QFE744

MVFR

10°C / 5°C

[Περισσότερο]
Άνεμος 250º 6kt
Ορατότητα >10km
Καιρός -
Νέφη Broken Clouds 2400ft
Πίεση 1011
Αλλαγή No Significant change. Runway 12: Wet or puddles, 51-100% contamination with 1mm, friction coefficient 0.55.
Ανεπεξέργαστο UUOO 221000Z 25003MPS 9999 BKN024 10/05 Q1011 R12/290155 NOSIG RMK QFE744

MVFR

10°C / 6°C

[Περισσότερο]
Άνεμος 250º 6kt
Ορατότητα >10km
Καιρός -
Νέφη Broken Clouds 2800ft
Πίεση 1011
Αλλαγή No Significant change. Runway 12: Wet or puddles, 51-100% contamination with 1mm, friction coefficient 0.55.
Ανεπεξέργαστο UUOO 220930Z 25003MPS 9999 BKN028 10/06 Q1011 R12/290155 NOSIG RMK QFE744

MVFR

10°C / 6°C

[Περισσότερο]
Άνεμος 250º 4kt
Ορατότητα >10km
Καιρός -
Νέφη Broken Clouds 2100ft
Πίεση 1011
Αλλαγή No Significant change. Runway 12: Wet or puddles, 51-100% contamination with 1mm, friction coefficient 0.55.
Ανεπεξέργαστο UUOO 220900Z 25002MPS 9999 BKN021 10/06 Q1011 R12/290155 NOSIG RMK QFE744

MVFR

10°C / 6°C

[Περισσότερο]
Άνεμος 250º 6kt
Ορατότητα >10km
Καιρός -
Νέφη Broken Clouds 3000ft
Πίεση 1011
Αλλαγή No Significant change. Runway 12: Wet or puddles, 51-100% contamination with 1mm, friction coefficient 0.55.
Ανεπεξέργαστο UUOO 220830Z 25003MPS 9999 BKN030 10/06 Q1011 R12/290155 NOSIG RMK QFE744

VFR

10°C / 7°C

[Περισσότερο]
Άνεμος variable 2kt
Ορατότητα >10km
Καιρός -
Νέφη Clouds and Visibility OK
Πίεση 1011
Αλλαγή No Significant change. Runway 12: Wet or puddles, 51-100% contamination with 1mm, friction coefficient 0.55.
Ανεπεξέργαστο UUOO 220800Z VRB01MPS CAVOK 10/07 Q1011 R12/290155 NOSIG RMK QFE744

IFR

9°C / 7°C

[Περισσότερο]
Άνεμος 270º variable 210º to 300º 4kt
Ορατότητα >10km
Καιρός Light Rain 1.00mm precipitation
Νέφη Vertical Visibility of 0ft.
Πίεση 1011
Αλλαγή Temporary: Broken Clouds 400ft. RMK QFE744 . Runway 12: Wet or puddles, 51-100% contamination with 1mm, friction coefficient 0.55.
Ανεπεξέργαστο UUOO 220730Z 27002MPS 210V300 9999 -RA BKN007 09/07 Q1011 R12/290155 TEMPO BKN004 RMK QFE744

MVFR

9°C / 7°C

[Περισσότερο]
Άνεμος 260º 6kt
Ορατότητα >10km
Καιρός Light Rain 1.00mm precipitation
Νέφη Vertical Visibility of 0ft.
Πίεση 1011
Αλλαγή Temporary: Broken Clouds 400ft. RMK QFE744 . Runway 12: Wet or puddles, 51-100% contamination with 1mm, friction coefficient 0.55.
Ανεπεξέργαστο UUOO 220700Z 26003MPS 9999 -RA BKN010 09/07 Q1011 R12/290155 TEMPO BKN004 RMK QFE744

VFR

8°C / 7°C

[Περισσότερο]
Άνεμος 270º 4kt
Ορατότητα >10km
Καιρός Light Rain 1.00mm precipitation
Νέφη Vertical Visibility of 0ft.
Πίεση 1011
Αλλαγή Temporary: Broken Clouds 400ft. RMK QFE744 . Runway 12: Wet or puddles, 51-100% contamination with 1mm, friction coefficient 0.55.
Ανεπεξέργαστο UUOO 220630Z 27002MPS 9999 -RA NSC 08/07 Q1011 R12/290155 TEMPO BKN004 RMK QFE744

VFR

8°C / 7°C

[Περισσότερο]
Άνεμος 250º 4kt
Ορατότητα 9000m
Καιρός Light Rain 1.00mm precipitation
Νέφη Vertical Visibility of 0ft.
Πίεση 1011
Αλλαγή Temporary: Broken Clouds 400ft. RMK QFE744 . Runway 12: Damp, 51-100% contamination with <1mm, friction coefficient 0.60.
Ανεπεξέργαστο UUOO 220600Z 25002MPS 9000 -RA NSC 08/07 Q1011 R12/190060 TEMPO BKN004 RMK QFE744

VFR

8°C / 7°C

[Περισσότερο]
Άνεμος 260º 4kt
Ορατότητα >10km
Καιρός -
Νέφη Broken Clouds 3900ft
Πίεση 1010
Αλλαγή Temporary: Broken Clouds 400ft. RMK QFE744 . Runway 30: Damp, 51-100% contamination with <1mm, friction coefficient 0.60.
Ανεπεξέργαστο UUOO 220530Z 26002MPS 9999 BKN039 08/07 Q1010 R30/190060 TEMPO BKN004 RMK QFE744

VFR

8°C / 6°C

[Περισσότερο]
Άνεμος 260º 4kt
Ορατότητα >10km
Καιρός -
Νέφη Broken Clouds 3300ft
Πίεση 1010
Αλλαγή No Significant change. Runway 30: Damp, 51-100% contamination with <1mm, friction coefficient 0.60.
Ανεπεξέργαστο UUOO 220500Z 26002MPS 9999 BKN033 08/06 Q1010 R30/190060 NOSIG RMK QFE744

VFR

8°C / 7°C

[Περισσότερο]
Άνεμος 280º 4kt
Ορατότητα >10km
Καιρός -
Νέφη Broken Clouds 3300ft
Πίεση 1010
Αλλαγή No Significant change. Runway 30: Damp, 51-100% contamination with <1mm, friction coefficient 0.60.
Ανεπεξέργαστο UUOO 220430Z 28002MPS 9999 BKN033 08/07 Q1010 R30/190060 NOSIG RMK QFE744

MVFR

7°C / 7°C

[Περισσότερο]
Άνεμος 280º 6kt
Ορατότητα >10km
Καιρός -
Νέφη Overcast 2600ft
Πίεση 1010
Αλλαγή No Significant change. Runway 30: Damp, 51-100% contamination with <1mm, friction coefficient 0.60.
Ανεπεξέργαστο UUOO 220400Z 28003MPS 9999 OVC026 07/07 Q1010 R30/190060 NOSIG RMK QFE744

MVFR

7°C / 6°C

[Περισσότερο]
Άνεμος 260º 6kt
Ορατότητα >10km
Καιρός -
Νέφη Overcast 2700ft
Πίεση 1010
Αλλαγή No Significant change. Runway 30: Damp, 51-100% contamination with <1mm, friction coefficient 0.60.
Ανεπεξέργαστο UUOO 220330Z 26003MPS 9999 OVC027 07/06 Q1010 R30/190060 NOSIG RMK QFE744

MVFR

8°C / 6°C

[Περισσότερο]
Άνεμος 270º 6kt
Ορατότητα >10km
Καιρός -
Νέφη Overcast 2200ft
Πίεση 1010
Αλλαγή No Significant change. Runway 30: Damp, 51-100% contamination with <1mm, friction coefficient 0.60.
Ανεπεξέργαστο UUOO 220300Z 27003MPS 9999 OVC022 08/06 Q1010 R30/190060 NOSIG RMK QFE744

MVFR

8°C / 7°C

[Περισσότερο]
Άνεμος 280º 4kt
Ορατότητα >10km
Καιρός -
Νέφη Overcast 2600ft
Πίεση 1010
Αλλαγή No Significant change. Runway 30: Wet or puddles, 51-100% contamination with 1mm, friction coefficient 0.55.
Ανεπεξέργαστο UUOO 220230Z 28002MPS 9999 OVC026 08/07 Q1010 R30/290155 NOSIG RMK QFE744

MVFR

9°C / 7°C

[Περισσότερο]
Άνεμος 270º 4kt
Ορατότητα >10km
Καιρός -
Νέφη Overcast 1600ft
Πίεση 1010
Αλλαγή No Significant change. Runway 30: Wet or puddles, 51-100% contamination with 1mm, friction coefficient 0.55.
Ανεπεξέργαστο UUOO 212330Z 27002MPS 9999 OVC016 09/07 Q1010 R30/290155 NOSIG RMK QFE744

MVFR

9°C / 8°C

[Περισσότερο]
Άνεμος 290º 8kt
Ορατότητα >10km
Καιρός -
Νέφη Overcast 1200ft
Πίεση 1010
Αλλαγή No Significant change. Runway 30: Wet or puddles, 51-100% contamination with 1mm, friction coefficient 0.55.
Ανεπεξέργαστο UUOO 212300Z 29004MPS 9999 OVC012 09/08 Q1010 R30/290155 NOSIG RMK QFE744

MVFR

9°C / 8°C

[Περισσότερο]
Άνεμος 280º 6kt
Ορατότητα >10km
Καιρός -
Νέφη Overcast 1400ft
Πίεση 1010
Αλλαγή No Significant change. Runway 30: Wet or puddles, 51-100% contamination with 1mm, friction coefficient 0.55.
Ανεπεξέργαστο UUOO 212230Z 28003MPS 9999 OVC014 09/08 Q1010 R30/290155 NOSIG RMK QFE744

TAF για 51.82°Β 39.23°Α (UUOO)

From till


From till Wind 240º 6kt. Visibility 10km or more. Broken Clouds 1600ft.

Ανεπεξέργαστο: TAF UUOO 221100Z 2212/2221 24003MPS 9999 BKN016

Τρέχουσες εικόνες δορυφόρου και βροχής για 51.82°Β 39.23°Α

Η ένδειξη τοποθεσίας τοποθετείται στο 51.82°Β 39.23°Α. [Περισσότερο]

Οι δορυφορικές εικόνες σε πραγματικό χρόνο συνδυάζουν ορατό φως κατά τη διάρκεια της ημέρας με υπέρυθρη ακτινοβολία κατά τη διάρκεια της νύχτας. Κατά τη διάρκεια της νύχτας, η εικόνα δεν είναι σκοτεινή μιας και η υπέρυθρη ακτινοβολία μπορεί να εντοπίσει τις διαφορές στη θερμοκρασία. Δυστυχώς, είναι δύσκολο να ξεχωρίσουν οι χαμηλές νεφώσεις και η ομίχλη από τις θερμοκρασίες εδάφους και έτσι μπορεί να είναι σχετικά αόρατα κατά τη διάρκεια της νύχτας. Οι εικόνες από τον δορυφόρο Meteosat για την Ευρώπη ενημερώνονται σε πραγματικό χρόνο κάθε 5 λεπτά. Οι εικόνες από τους δορυφόρους GOES-16/GOES-17 (Βόρεια & Λατινική Αμερική) και Himawari (Ασία) ενημερώνονται κάθε 10 λεπτά.

Πνευματική ιδιοκτησία 2021 EUMETSAT / meteoblue. / Πνευματική ιδιοκτησία 2021 meteoblue

Ραντάρ και πρόγνωση υετού μικρής δειάρκειας για 51.82°Β 39.23°Α

Ψιλοβρέχει
Φως
Μέτρια
Βαριά
Πολύ βαρύ
Χαλάζι

Ο δείκτης θέσης τοποθετείται στο 51.82°Β 39.23°Α. Αυτή η κινούμενη εικόνα δείχνει την ραντάρ βροχόπτωσης για την τελευταία ώρα, καθώς και 1πρόγνωση h. Το ψιλόβροχο ή το ελαφρύ χιόνι μπορεί να είναι αόρατο για το ραντάρ. Η ένταση της βροχόπτωσης είναι χρωματικά κωδικοποιημένη και κυμαίνεται από γαλάζιο έως πορτοκαλί.